CheckWX is a tool to help pilots better visualize weather data.  It is not intended as a substitute for an official pre-flight weather briefing.

12:01:58 UTC

KCRQ TAF
Mc Clellan-Palomar Airport
Carlsbad, California, USA
KCRQ 051720Z 0518/0618 21008KT P6SM VCSH SCT025 BKN035 FM052200 22012G20KT P6SM SCT025 BKN040 FM060500 20015G25KT 6SM -SHRA BKN020 OVC035 FM061500 17018G30KT 5SM -RA BKN020 BKN035

Apr-5@
18:00 UTC

Apr-5 @ 18:00 UTC

Apr-5@
22:00 UTC

Apr-5 @ 22:00 UTC

TAF KCRQ 051720Z 0518/0618 21008KT P6SM VCSH SCT025 BKN035

Expired

Wind
  • 210° at 8 KTS
Conditions
Area Showers
Cloud Levels
  • Scattered at 2,500' AGL
  • Broken at 3,500' AGL

Apr-5@
22:00 UTC

Apr-5 @ 22:00 UTC

Apr-6@
05:00 UTC

Apr-6 @ 05:00 UTC

FM052200 22012G20KT P6SM SCT025 BKN040

Expired

Wind
  • 220° at 12 KTS
  • {Gusting to 20 KTS
Cloud Levels
  • Scattered at 2,500' AGL
  • Broken at 4,000' AGL

Apr-6@
05:00 UTC

Apr-6 @ 05:00 UTC

Apr-6@
15:00 UTC

Apr-6 @ 15:00 UTC

FM060500 20015G25KT 6SM -SHRA BKN020 OVC035

From

From Standard forecast or significant change

Wind
  • 200° at 15 KTS
  • {Gusting to 25 KTS
Conditions
Light Showers, Rain
Cloud Levels
  • Broken at 2,000' AGL
  • Overcast at 3,500' AGL

Apr-6@
15:00 UTC

Apr-6 @ 15:00 UTC

Apr-6@
18:00 UTC

Apr-6 @ 18:00 UTC

FM061500 17018G30KT 5SM -RA BKN020 BKN035

From

From Standard forecast or significant change

Wind
  • 170° at 18 KTS
  • {Gusting to 30 KTS
Conditions
Light Rain
Cloud Levels
  • Broken at 2,000' AGL
  • Broken at 3,500' AGL